createdAt,value
2023-05-18T00:00:35.272Z,5.90
2023-05-18T00:03:01.769Z,5.92
2023-05-18T00:05:28.349Z,5.86
2023-05-18T00:07:54.924Z,5.90
2023-05-18T00:10:21.339Z,5.98
2023-05-18T00:12:47.793Z,6.17
2023-05-18T00:15:14.133Z,6.23
2023-05-18T00:17:40.524Z,5.97
2023-05-18T00:20:06.904Z,6.01
2023-05-18T00:22:33.277Z,6.04
2023-05-18T00:24:59.665Z,6.06
2023-05-18T00:27:26.042Z,6.05
2023-05-18T00:29:52.418Z,6.13
2023-05-18T00:32:18.767Z,6.16
2023-05-18T00:34:45.150Z,6.08
2023-05-18T00:37:11.519Z,6.36
2023-05-18T00:39:37.867Z,6.31
2023-05-18T00:42:04.559Z,6.00
2023-05-18T00:44:30.932Z,5.98
2023-05-18T00:46:57.274Z,6.28
2023-05-18T00:49:23.630Z,6.34
2023-05-18T00:51:49.994Z,6.54
2023-05-18T00:54:16.355Z,6.70
2023-05-18T00:56:42.705Z,6.48
2023-05-18T00:59:09.079Z,6.04
2023-05-18T01:01:35.525Z,6.44
2023-05-18T01:04:01.953Z,6.71
2023-05-18T01:06:28.336Z,6.73
2023-05-18T01:08:54.724Z,6.23
2023-05-18T01:11:21.140Z,6.19
2023-05-18T01:13:47.532Z,6.43
2023-05-18T01:16:13.893Z,6.12
2023-05-18T01:18:40.278Z,6.40
2023-05-18T01:21:06.658Z,6.36
2023-05-18T01:23:33.005Z,6.37
2023-05-18T01:25:59.368Z,6.11
2023-05-18T01:28:25.765Z,6.03
2023-05-18T01:30:52.168Z,6.09
2023-05-18T01:33:18.548Z,6.22
2023-05-18T01:35:44.911Z,6.30
2023-05-18T01:38:11.310Z,6.43
2023-05-18T01:40:37.710Z,6.07
2023-05-18T01:43:04.062Z,6.14
2023-05-18T01:45:30.656Z,6.46
2023-05-18T01:47:57.203Z,6.05
2023-05-18T01:50:23.701Z,6.32
2023-05-18T01:52:50.053Z,6.17
2023-05-18T01:55:16.411Z,6.00
2023-05-18T01:57:42.781Z,6.28
2023-05-18T02:00:09.189Z,5.96
2023-05-18T02:02:35.690Z,6.22
2023-05-18T02:05:02.135Z,6.22
2023-05-18T02:07:28.482Z,6.16
2023-05-18T02:09:54.831Z,6.23
2023-05-18T02:12:21.176Z,6.45
2023-05-18T02:14:47.545Z,6.37
2023-05-18T02:17:13.911Z,6.39
2023-05-18T02:19:40.580Z,6.58
2023-05-18T02:22:06.955Z,6.20
2023-05-18T02:24:33.356Z,6.48
2023-05-18T02:26:59.737Z,6.21
2023-05-18T02:29:26.120Z,6.69
2023-05-18T02:31:52.508Z,6.81
2023-05-18T02:34:18.888Z,6.71
2023-05-18T02:36:45.261Z,6.45
2023-05-18T02:39:11.659Z,6.57
2023-05-18T02:41:38.055Z,6.59
2023-05-18T02:44:04.429Z,6.23
2023-05-18T02:46:30.904Z,6.45
2023-05-18T02:48:57.334Z,6.22
2023-05-18T02:51:23.828Z,6.25
2023-05-18T02:53:50.186Z,6.35
2023-05-18T02:56:16.547Z,6.14
2023-05-18T02:58:42.892Z,6.25
2023-05-18T03:01:09.305Z,6.31
2023-05-18T03:03:35.725Z,6.14
2023-05-18T03:06:02.119Z,6.14
2023-05-18T03:08:28.455Z,6.55
2023-05-18T03:10:54.821Z,6.18
2023-05-18T03:13:21.174Z,6.03
2023-05-18T03:15:47.516Z,6.16
2023-05-18T03:18:13.873Z,6.09
2023-05-18T03:20:40.234Z,6.21
2023-05-18T03:23:06.613Z,6.29
2023-05-18T03:25:32.983Z,6.38
2023-05-18T03:27:59.352Z,6.38
2023-05-18T03:30:25.702Z,6.26
2023-05-18T03:32:52.123Z,6.25
2023-05-18T03:35:18.510Z,6.02
2023-05-18T03:37:44.907Z,6.06
2023-05-18T03:40:11.302Z,6.24
2023-05-18T03:42:37.678Z,6.52
2023-05-18T03:45:04.029Z,6.49
2023-05-18T03:47:30.440Z,6.32
2023-05-18T03:49:56.840Z,6.47
2023-05-18T03:52:23.192Z,6.49
2023-05-18T03:54:49.546Z,6.55
2023-05-18T03:57:15.933Z,6.51
2023-05-18T03:59:42.316Z,6.56
2023-05-18T04:02:08.706Z,6.70
2023-05-18T04:04:35.171Z,6.30
2023-05-18T04:07:01.516Z,6.35
2023-05-18T04:09:27.901Z,6.29
2023-05-18T04:11:54.247Z,6.07
2023-05-18T04:14:20.593Z,6.41
2023-05-18T04:16:47.126Z,6.41
2023-05-18T04:19:13.597Z,6.70
2023-05-18T04:21:40.020Z,6.51
2023-05-18T04:24:06.397Z,6.42
2023-05-18T04:26:32.775Z,6.58
2023-05-18T04:28:59.125Z,6.40
2023-05-18T04:31:25.525Z,6.40
2023-05-18T04:33:51.936Z,6.24
2023-05-18T04:36:20.151Z,6.34
2023-05-18T04:38:47.306Z,7.04
2023-05-18T04:41:13.651Z,6.67
2023-05-18T04:43:40.031Z,6.75
2023-05-18T04:46:06.489Z,6.76
2023-05-18T04:48:32.874Z,6.62
2023-05-18T04:50:59.236Z,6.46
2023-05-18T04:53:25.617Z,6.06
2023-05-18T04:55:51.984Z,6.79
2023-05-18T04:58:18.346Z,6.53
2023-05-18T05:00:44.699Z,6.29
2023-05-18T05:03:11.159Z,6.46
2023-05-18T05:05:37.579Z,6.75
2023-05-18T05:08:03.964Z,6.58
2023-05-18T05:10:30.333Z,6.97
2023-05-18T05:12:56.720Z,6.39
2023-05-18T05:15:23.119Z,6.58
2023-05-18T05:17:49.563Z,6.55
2023-05-18T05:20:15.994Z,6.80
2023-05-18T05:22:42.463Z,6.60
2023-05-18T05:25:08.852Z,6.42
2023-05-18T05:27:35.231Z,7.73
2023-05-18T05:30:01.624Z,8.14
2023-05-18T05:32:28.052Z,10.99
2023-05-18T05:34:54.447Z,10.25
2023-05-18T05:37:20.804Z,9.67
2023-05-18T05:39:47.179Z,10.85
2023-05-18T05:42:13.531Z,9.49
2023-05-18T05:44:39.905Z,8.74
2023-05-18T05:47:06.333Z,8.33
2023-05-18T05:49:32.774Z,7.97
2023-05-18T05:51:59.142Z,7.14
2023-05-18T05:54:25.520Z,7.32
2023-05-18T05:56:51.876Z,7.39
2023-05-18T05:59:18.245Z,8.16
2023-05-18T06:01:44.646Z,8.61
2023-05-18T06:04:11.136Z,7.33
2023-05-18T06:06:37.545Z,6.96
2023-05-18T06:09:03.887Z,7.36
2023-05-18T06:11:30.232Z,7.88
2023-05-18T06:13:56.582Z,7.79
2023-05-18T06:16:22.999Z,7.60
2023-05-18T06:18:49.424Z,7.05
2023-05-18T06:21:15.817Z,7.12
2023-05-18T06:23:42.250Z,6.91
2023-05-18T06:26:08.648Z,7.02
2023-05-18T06:28:34.997Z,6.88
2023-05-18T06:31:01.363Z,7.13
2023-05-18T06:33:27.712Z,7.05
2023-05-18T06:35:54.094Z,7.12
2023-05-18T06:38:21.574Z,7.64
2023-05-18T06:40:47.927Z,7.81
2023-05-18T06:43:14.296Z,7.63
2023-05-18T06:45:40.668Z,7.81
2023-05-18T06:48:07.076Z,7.71
2023-05-18T06:50:33.494Z,7.81
2023-05-18T06:52:59.872Z,7.46
2023-05-18T06:55:26.249Z,7.71
2023-05-18T06:57:52.632Z,7.46
2023-05-18T07:00:18.989Z,7.81
2023-05-18T07:02:45.430Z,7.78
2023-05-18T07:05:11.820Z,7.76
2023-05-18T07:07:38.205Z,7.58
2023-05-18T07:10:04.601Z,8.05
2023-05-18T07:12:30.988Z,8.20
2023-05-18T07:14:57.345Z,7.37
2023-05-18T07:17:23.736Z,7.52
2023-05-18T07:19:50.128Z,7.62
2023-05-18T07:22:16.477Z,8.07
2023-05-18T07:24:42.858Z,9.09
2023-05-18T07:27:09.269Z,8.99
2023-05-18T07:29:35.625Z,8.37
2023-05-18T07:32:02.040Z,8.67
2023-05-18T07:34:28.495Z,8.53
2023-05-18T07:36:54.859Z,8.04
2023-05-18T07:39:21.212Z,8.02
2023-05-18T07:41:47.587Z,8.25
2023-05-18T07:44:13.938Z,8.22
2023-05-18T07:46:40.342Z,7.94
2023-05-18T07:49:06.711Z,8.12
2023-05-18T07:51:33.071Z,7.89
2023-05-18T07:53:59.413Z,7.74
2023-05-18T07:56:25.768Z,7.94
2023-05-18T07:58:52.144Z,8.20
2023-05-18T08:01:18.513Z,8.35
2023-05-18T08:03:44.979Z,8.03
2023-05-18T08:06:11.421Z,7.97
2023-05-18T08:08:37.807Z,7.93
2023-05-18T08:11:04.204Z,7.65
2023-05-18T08:13:32.572Z,7.82
2023-05-18T08:16:11.100Z,7.99
2023-05-18T08:18:38.463Z,8.21
2023-05-18T08:21:04.843Z,8.57
2023-05-18T08:23:31.222Z,8.13
2023-05-18T08:25:57.566Z,7.91
2023-05-18T08:28:23.927Z,7.64
2023-05-18T08:30:50.278Z,7.86
2023-05-18T08:33:16.685Z,7.58
2023-05-18T08:35:43.072Z,7.74
2023-05-18T08:38:09.438Z,7.76
2023-05-18T08:40:35.831Z,7.96
2023-05-18T08:43:02.212Z,7.91
2023-05-18T08:45:28.740Z,7.93
2023-05-18T08:47:55.421Z,7.97
2023-05-18T08:50:24.273Z,7.87
2023-05-18T08:52:50.996Z,13.65
2023-05-18T08:55:17.357Z,15.51
2023-05-18T08:57:43.722Z,8.97
2023-05-18T09:00:10.077Z,8.72
2023-05-18T09:02:36.465Z,8.47
2023-05-18T09:05:02.884Z,7.75
2023-05-18T09:07:29.313Z,8.15
2023-05-18T09:09:55.668Z,7.94
2023-05-18T09:12:23.618Z,7.87
2023-05-18T09:14:50.869Z,7.71
2023-05-18T09:17:17.241Z,7.14
2023-05-18T09:19:43.586Z,7.45
2023-05-18T09:22:09.953Z,7.36
2023-05-18T09:24:36.320Z,7.64
2023-05-18T09:27:02.714Z,7.87
2023-05-18T09:29:30.223Z,7.54
2023-05-18T09:31:58.110Z,7.73
2023-05-18T09:34:24.694Z,8.28
2023-05-18T09:36:51.175Z,7.65
2023-05-18T09:39:17.521Z,7.82
2023-05-18T09:41:43.928Z,7.73
2023-05-18T09:44:10.276Z,7.57
2023-05-18T09:46:36.699Z,7.42
2023-05-18T09:49:03.089Z,6.98
2023-05-18T09:51:29.447Z,7.03
2023-05-18T09:53:55.804Z,7.61
2023-05-18T09:56:22.145Z,7.32
2023-05-18T09:58:48.524Z,6.66
2023-05-18T10:01:14.942Z,6.98
2023-05-18T10:03:41.324Z,7.59
2023-05-18T10:06:07.686Z,7.97
2023-05-18T10:08:34.063Z,6.90
2023-05-18T10:11:00.431Z,7.26
2023-05-18T10:13:26.791Z,6.78
2023-05-18T10:15:53.162Z,6.74
2023-05-18T10:18:19.601Z,6.80
2023-05-18T10:20:45.996Z,6.52
2023-05-18T10:23:12.353Z,6.87
2023-05-18T10:25:38.741Z,7.05
2023-05-18T10:28:05.107Z,6.95
2023-05-18T10:30:31.696Z,6.84
2023-05-18T10:32:58.269Z,7.22
2023-05-18T10:35:24.699Z,6.98
2023-05-18T10:37:51.073Z,6.69
2023-05-18T10:40:17.535Z,6.71
2023-05-18T10:42:44.012Z,6.69
2023-05-18T10:45:10.389Z,6.34
2023-05-18T10:47:36.985Z,6.33
2023-05-18T10:50:03.515Z,6.28
2023-05-18T10:52:29.890Z,6.66
2023-05-18T10:54:56.249Z,6.71
2023-05-18T10:57:22.613Z,6.45
2023-05-18T10:59:49.022Z,6.77
2023-05-18T11:02:15.399Z,6.73
2023-05-18T11:04:41.818Z,6.69
2023-05-18T11:07:08.198Z,6.61
2023-05-18T11:09:34.556Z,6.41
2023-05-18T11:12:00.937Z,6.48
2023-05-18T11:14:27.323Z,6.63
2023-05-18T11:16:53.757Z,7.25
2023-05-18T11:19:20.290Z,7.35
2023-05-18T11:21:46.761Z,7.09
2023-05-18T11:24:13.137Z,6.82
2023-05-18T11:26:39.516Z,7.31
2023-05-18T11:29:05.890Z,7.19
2023-05-18T11:31:32.307Z,7.81
2023-05-18T11:33:58.784Z,6.51
2023-05-18T11:36:25.131Z,6.14
2023-05-18T11:38:51.490Z,6.12
2023-05-18T11:41:17.859Z,6.06
2023-05-18T11:43:44.208Z,5.77
2023-05-18T11:46:10.569Z,5.61
2023-05-18T11:48:37.087Z,5.58
2023-05-18T11:51:03.671Z,5.65
2023-05-18T11:53:30.037Z,6.04
2023-05-18T11:55:56.406Z,5.86
2023-05-18T11:58:22.787Z,5.99
2023-05-18T12:00:49.154Z,5.86
2023-05-18T12:03:15.670Z,5.67
2023-05-18T12:05:42.098Z,5.58
2023-05-18T12:08:08.485Z,5.69
2023-05-18T12:10:34.837Z,5.72
2023-05-18T12:13:01.170Z,5.74
2023-05-18T12:15:27.574Z,5.76
2023-05-18T12:17:53.993Z,5.78
2023-05-18T12:20:20.397Z,5.79
2023-05-18T12:22:46.766Z,5.91
2023-05-18T12:25:13.170Z,5.85
2023-05-18T12:27:39.539Z,6.32
2023-05-18T12:30:05.914Z,5.84
2023-05-18T12:32:32.312Z,6.12
2023-05-18T12:34:58.693Z,6.38
2023-05-18T12:37:33.870Z,6.38
2023-05-18T12:40:04.583Z,6.31
2023-05-18T12:42:30.964Z,6.49
2023-05-18T12:44:57.357Z,6.48
2023-05-18T12:47:23.874Z,6.27
2023-05-18T12:49:50.274Z,5.87
2023-05-18T12:52:16.674Z,6.07
2023-05-18T12:54:43.101Z,6.16
2023-05-18T12:57:09.469Z,6.27
2023-05-18T12:59:35.830Z,5.89
2023-05-18T13:02:02.287Z,5.87
2023-05-18T13:04:28.773Z,5.64
2023-05-18T13:06:55.246Z,5.78
2023-05-18T13:09:21.640Z,6.45
2023-05-18T13:11:49.880Z,6.08
2023-05-18T13:14:18.317Z,6.70
2023-05-18T13:16:44.725Z,6.61
2023-05-18T13:19:11.201Z,6.11
2023-05-18T13:21:37.690Z,5.85
2023-05-18T13:24:04.057Z,5.91
2023-05-18T13:26:30.436Z,6.24
2023-05-18T13:28:56.804Z,6.04
2023-05-18T13:31:23.261Z,6.25
2023-05-18T13:33:49.664Z,6.15
2023-05-18T13:36:16.027Z,6.07
2023-05-18T13:38:42.391Z,6.35
2023-05-18T13:41:08.737Z,6.03
2023-05-18T13:43:35.117Z,5.78
2023-05-18T13:46:01.523Z,5.89
2023-05-18T13:48:27.907Z,6.16
2023-05-18T13:50:54.292Z,5.88
2023-05-18T13:53:20.716Z,6.19
2023-05-18T13:55:47.085Z,6.14
2023-05-18T13:58:13.445Z,5.96
2023-05-18T14:00:39.805Z,6.09
2023-05-18T14:03:06.251Z,5.84
2023-05-18T14:05:32.741Z,5.95
2023-05-18T14:07:59.084Z,6.28
2023-05-18T14:10:25.456Z,6.02
2023-05-18T14:12:51.877Z,6.23
2023-05-18T14:15:18.235Z,5.74
2023-05-18T14:17:44.703Z,6.03
2023-05-18T14:20:11.135Z,5.95
2023-05-18T14:22:37.510Z,6.21
2023-05-18T14:25:03.885Z,5.84
2023-05-18T14:27:30.258Z,6.23
2023-05-18T14:29:56.634Z,6.31
2023-05-18T14:32:23.105Z,5.75
2023-05-18T14:34:49.695Z,6.01
2023-05-18T14:37:16.077Z,5.91
2023-05-18T14:39:42.429Z,5.93
2023-05-18T14:42:08.863Z,5.73
2023-05-18T14:44:35.323Z,5.85
2023-05-18T14:47:01.801Z,5.59
2023-05-18T14:49:28.322Z,5.87
2023-05-18T14:51:54.688Z,5.83
2023-05-18T14:54:21.076Z,5.61
2023-05-18T14:56:47.417Z,5.89
2023-05-18T14:59:13.781Z,6.11
2023-05-18T15:01:40.167Z,5.72
2023-05-18T15:04:06.612Z,5.55
2023-05-18T15:06:32.997Z,5.84
2023-05-18T15:08:59.359Z,6.18
2023-05-18T15:11:25.736Z,6.24
2023-05-18T15:13:52.097Z,6.51
2023-05-18T15:16:18.504Z,6.24
2023-05-18T15:18:44.918Z,6.31
2023-05-18T15:21:11.287Z,6.02
2023-05-18T15:23:37.650Z,5.91
2023-05-18T15:26:04.245Z,6.38
2023-05-18T15:28:31.269Z,6.23
2023-05-18T15:30:57.655Z,6.54
2023-05-18T15:33:24.013Z,5.87
2023-05-18T15:35:50.358Z,6.38
2023-05-18T15:38:16.724Z,6.74
2023-05-18T15:40:43.127Z,6.37
2023-05-18T15:43:09.498Z,6.38
2023-05-18T15:45:35.945Z,6.43
2023-05-18T15:48:02.393Z,6.29
2023-05-18T15:50:28.909Z,6.45
2023-05-18T15:52:55.342Z,6.64
2023-05-18T15:55:21.698Z,6.30
2023-05-18T15:57:48.045Z,6.47
2023-05-18T16:00:14.392Z,6.20
2023-05-18T16:02:40.821Z,6.21
2023-05-18T16:05:07.264Z,6.15
2023-05-18T16:07:33.615Z,6.26
2023-05-18T16:09:59.973Z,6.42
2023-05-18T16:12:26.475Z,6.02
2023-05-18T16:14:52.854Z,6.38
2023-05-18T16:17:19.248Z,6.34
2023-05-18T16:19:45.656Z,6.20
2023-05-18T16:22:12.050Z,6.34
2023-05-18T16:24:38.420Z,6.25
2023-05-18T16:27:04.804Z,6.16
2023-05-18T16:29:31.176Z,6.83
2023-05-18T16:31:57.587Z,6.43
2023-05-18T16:34:23.974Z,6.30
2023-05-18T16:36:50.318Z,6.74
2023-05-18T16:39:16.695Z,6.42
2023-05-18T16:41:43.045Z,6.13
2023-05-18T16:44:09.413Z,6.16
2023-05-18T16:46:35.814Z,6.14
2023-05-18T16:49:02.214Z,5.74
2023-05-18T16:51:28.584Z,5.84
2023-05-18T16:53:54.989Z,5.83
2023-05-18T16:56:21.337Z,5.72
2023-05-18T16:58:47.698Z,5.71
2023-05-18T17:01:26.767Z,5.47
2023-05-18T17:03:54.803Z,5.38
2023-05-18T17:06:21.354Z,5.49
2023-05-18T17:08:47.768Z,5.46
2023-05-18T17:11:14.145Z,5.31
2023-05-18T17:13:40.530Z,5.50
2023-05-18T17:16:06.942Z,5.43
2023-05-18T17:18:33.352Z,5.54
2023-05-18T17:20:59.709Z,5.38
2023-05-18T17:23:26.052Z,5.48
2023-05-18T17:25:55.166Z,5.41
2023-05-18T17:28:27.376Z,5.29
2023-05-18T17:30:53.774Z,5.60
2023-05-18T17:33:20.139Z,5.83
2023-05-18T17:35:46.502Z,5.58
2023-05-18T17:38:12.890Z,5.60
2023-05-18T17:40:39.249Z,5.68
2023-05-18T17:43:05.589Z,5.85
2023-05-18T17:45:31.933Z,5.48
2023-05-18T17:47:58.345Z,5.39
2023-05-18T17:50:24.781Z,5.81
2023-05-18T17:52:51.141Z,5.74
2023-05-18T17:55:17.511Z,5.33
2023-05-18T17:57:43.887Z,5.67
2023-05-18T18:00:10.235Z,5.76
2023-05-18T18:02:36.611Z,6.01
2023-05-18T18:05:03.012Z,5.91
2023-05-18T18:07:29.396Z,5.77
2023-05-18T18:09:55.844Z,5.87
2023-05-18T18:12:22.239Z,5.74
2023-05-18T18:14:48.589Z,5.82
2023-05-18T18:17:15.031Z,6.06
2023-05-18T18:19:41.471Z,6.14
2023-05-18T18:22:07.842Z,5.63
2023-05-18T18:24:34.205Z,6.16
2023-05-18T18:27:00.554Z,5.80
2023-05-18T18:29:26.937Z,6.05
2023-05-18T18:31:53.321Z,5.68
2023-05-18T18:34:19.688Z,5.87
2023-05-18T18:36:46.038Z,5.96
2023-05-18T18:39:12.411Z,5.95
2023-05-18T18:41:38.770Z,5.77
2023-05-18T18:44:05.126Z,5.74
2023-05-18T18:46:31.558Z,5.65
2023-05-18T18:48:58.013Z,5.67
2023-05-18T18:51:24.373Z,5.31
2023-05-18T18:53:50.719Z,5.58
2023-05-18T18:56:17.079Z,5.64
2023-05-18T18:58:43.439Z,5.59
2023-05-18T19:01:09.884Z,5.77
2023-05-18T19:03:36.313Z,5.55
2023-05-18T19:06:02.663Z,5.48
2023-05-18T19:08:29.036Z,5.67
2023-05-18T19:10:55.401Z,5.53
2023-05-18T19:13:21.751Z,5.62
2023-05-18T19:15:48.153Z,5.69
2023-05-18T19:18:14.545Z,5.43
2023-05-18T19:20:40.902Z,5.56
2023-05-18T19:23:07.254Z,5.70
2023-05-18T19:25:33.828Z,5.40
2023-05-18T19:28:00.327Z,5.43
2023-05-18T19:30:26.676Z,5.38
2023-05-18T19:32:57.769Z,5.59
2023-05-18T19:35:24.150Z,5.27
2023-05-18T19:37:50.521Z,5.46
2023-05-18T19:40:16.891Z,5.92
2023-05-18T19:42:43.273Z,8.20
2023-05-18T19:45:09.628Z,8.50
2023-05-18T19:47:35.990Z,7.21
2023-05-18T19:50:02.352Z,7.11
2023-05-18T19:52:28.722Z,5.90
2023-05-18T19:54:55.104Z,5.49
2023-05-18T19:57:21.454Z,5.44
2023-05-18T19:59:47.823Z,5.35
2023-05-18T20:02:14.182Z,5.50
2023-05-18T20:04:40.551Z,5.30
2023-05-18T20:07:06.908Z,5.38
2023-05-18T20:09:33.308Z,5.75
2023-05-18T20:11:59.673Z,5.42
2023-05-18T20:14:26.126Z,5.57
2023-05-18T20:16:52.616Z,5.58
2023-05-18T20:19:19.096Z,5.07
2023-05-18T20:21:45.509Z,5.28
2023-05-18T20:24:11.865Z,5.23
2023-05-18T20:26:38.213Z,5.35
2023-05-18T20:29:04.564Z,5.48
2023-05-18T20:31:30.939Z,5.06
2023-05-18T20:33:57.335Z,5.17
2023-05-18T20:36:23.707Z,5.30
2023-05-18T20:38:50.060Z,5.15
2023-05-18T20:41:16.420Z,5.44
2023-05-18T20:43:42.763Z,5.20
2023-05-18T20:46:09.207Z,5.19
2023-05-18T20:48:35.597Z,5.48
2023-05-18T20:51:01.966Z,5.05
2023-05-18T20:53:28.347Z,5.10
2023-05-18T20:55:54.718Z,5.14
2023-05-18T20:58:21.078Z,5.02
2023-05-18T21:00:47.440Z,5.07
2023-05-18T21:03:14.010Z,4.92
2023-05-18T21:05:40.648Z,5.18
2023-05-18T21:08:07.007Z,4.87
2023-05-18T21:10:34.059Z,5.28
2023-05-18T21:13:00.494Z,5.23
2023-05-18T21:15:26.874Z,5.13
2023-05-18T21:17:53.299Z,5.04
2023-05-18T21:20:19.724Z,5.02
2023-05-18T21:22:46.267Z,4.92
2023-05-18T21:25:12.647Z,5.18
2023-05-18T21:27:39.409Z,5.12
2023-05-18T21:30:05.987Z,5.10
2023-05-18T21:32:32.495Z,5.16
2023-05-18T21:34:59.025Z,5.21
2023-05-18T21:37:25.373Z,5.03
2023-05-18T21:39:51.736Z,5.09
2023-05-18T21:42:18.101Z,5.37
2023-05-18T21:44:44.478Z,5.29
2023-05-18T21:47:10.826Z,4.88
2023-05-18T21:49:37.193Z,5.19
2023-05-18T21:52:03.553Z,5.23
2023-05-18T21:54:32.721Z,5.04
2023-05-18T21:56:59.290Z,4.95
2023-05-18T21:59:25.661Z,5.18
2023-05-18T22:01:52.034Z,4.97
2023-05-18T22:04:18.404Z,5.23
2023-05-18T22:06:44.789Z,5.08
2023-05-18T22:09:11.162Z,5.06
2023-05-18T22:11:37.526Z,4.93
2023-05-18T22:14:03.879Z,4.97
2023-05-18T22:16:30.283Z,5.41
2023-05-18T22:18:56.692Z,4.63
2023-05-18T22:21:23.095Z,5.13
2023-05-18T22:23:49.474Z,5.18
2023-05-18T22:26:15.828Z,5.37
2023-05-18T22:28:42.189Z,4.83
2023-05-18T22:31:08.543Z,5.27
2023-05-18T22:33:34.901Z,5.19
2023-05-18T22:36:01.253Z,5.21
2023-05-18T22:38:27.618Z,5.33
2023-05-18T22:40:54.070Z,5.07
2023-05-18T22:43:20.519Z,5.14
2023-05-18T22:45:46.871Z,4.94
2023-05-18T22:48:13.307Z,4.92
2023-05-18T22:50:39.693Z,4.95
2023-05-18T22:53:06.042Z,5.05
2023-05-18T22:55:32.408Z,5.00
2023-05-18T22:57:58.774Z,5.10
2023-05-18T23:00:25.138Z,5.00
2023-05-18T23:02:51.541Z,4.81
2023-05-18T23:05:17.953Z,5.22
2023-05-18T23:07:44.418Z,4.94
2023-05-18T23:10:10.771Z,4.78
2023-05-18T23:12:37.118Z,4.94
2023-05-18T23:15:03.488Z,5.11
2023-05-18T23:17:29.878Z,5.02
2023-05-18T23:19:56.245Z,4.79
2023-05-18T23:22:22.598Z,4.85
2023-05-18T23:24:48.968Z,5.03
2023-05-18T23:27:15.323Z,4.82
2023-05-18T23:29:41.677Z,5.01
2023-05-18T23:32:08.075Z,4.86
2023-05-18T23:34:34.466Z,4.79
2023-05-18T23:37:00.810Z,4.67
2023-05-18T23:39:27.186Z,4.87
2023-05-18T23:41:53.572Z,4.95
2023-05-18T23:44:19.979Z,4.57
2023-05-18T23:46:46.376Z,4.77
2023-05-18T23:49:12.799Z,4.82
2023-05-18T23:51:39.193Z,4.72
2023-05-18T23:54:05.533Z,4.88
2023-05-18T23:56:31.873Z,4.79
2023-05-18T23:58:58.218Z,4.81
